Time,TemperatureF,DewpointF,PressureIn,WindDirection,WindDirectionDegrees,WindSpeedMPH,WindSpeedGustMPH,Humidity,HourlyPrecipIn,Conditions,Clouds,dailyrainin,SoftwareType,DateUTC
2013-01-18 00:00:00,36.0,22.2,29.50,NNW,338,6.0,6.0,57,0.00,,,0.00,VWS V14.01,2013-01-18 05:00:00,
2013-01-18 00:03:00,36.1,22.8,29.50,NNW,338,5.6,5.6,58,0.00,,,0.00,VWS V14.01,2013-01-18 05:03:00,
2013-01-18 00:04:00,36.0,22.6,29.50,NNW,338,6.3,6.3,58,0.00,,,0.00,VWS V14.01,2013-01-18 05:04:00,
2013-01-18 00:09:00,36.0,22.6,29.50,NNW,338,4.9,4.9,58,0.00,,,0.00,VWS V14.01,2013-01-18 05:09:00,
2013-01-18 00:14:00,35.8,22.5,29.50,NNW,338,6.3,6.3,58,0.00,,,0.00,VWS V14.01,2013-01-18 05:14:00,
2013-01-18 00:19:00,35.6,22.3,29.50,NW,315,5.8,5.8,58,0.00,,,0.00,VWS V14.01,2013-01-18 05:19:00,
2013-01-18 00:24:00,35.6,21.9,29.50,NW,315,5.6,5.6,57,0.00,,,0.00,VWS V14.01,2013-01-18 05:24:00,
2013-01-18 00:29:00,35.6,21.9,29.50,NNW,338,5.6,5.6,57,0.00,,,0.00,VWS V14.01,2013-01-18 05:29:00,
2013-01-18 00:34:00,35.4,21.3,29.50,NW,315,10.5,10.5,56,0.00,,,0.00,VWS V14.01,2013-01-18 05:34:00,
2013-01-18 00:39:00,35.4,21.3,29.50,NNW,338,7.4,7.4,56,0.00,,,0.00,VWS V14.01,2013-01-18 05:39:00,
2013-01-18 00:44:00,35.4,21.3,29.50,WNW,292,5.4,5.4,56,0.00,,,0.00,VWS V14.01,2013-01-18 05:44:00,
2013-01-18 00:49:00,35.4,21.3,29.50,WNW,292,4.9,4.9,56,0.00,,,0.00,VWS V14.01,2013-01-18 05:49:00,
2013-01-18 00:54:00,35.2,21.1,29.50,NNW,338,4.3,4.3,56,0.00,,,0.00,VWS V14.01,2013-01-18 05:54:00,
2013-01-18 00:59:00,35.2,21.1,29.50,WNW,292,6.3,6.3,56,0.00,,,0.00,VWS V14.01,2013-01-18 05:59:00,
2013-01-18 01:04:00,35.1,21.0,29.50,NNW,338,7.2,7.2,56,0.00,,,0.00,VWS V14.01,2013-01-18 06:04:00,
2013-01-18 01:09:00,35.1,20.5,29.50,WNW,292,3.6,3.6,55,0.00,,,0.00,VWS V14.01,2013-01-18 06:09:00,
2013-01-18 01:14:00,35.1,20.5,29.50,NW,315,2.9,2.9,55,0.00,,,0.00,VWS V14.01,2013-01-18 06:14:00,
2013-01-18 01:19:00,35.1,20.5,29.50,NW,315,4.0,4.0,55,0.00,,,0.00,VWS V14.01,2013-01-18 06:19:00,
2013-01-18 01:25:00,34.9,19.9,29.53,WNW,292,2.9,2.9,54,0.00,,,0.00,VWS V14.01,2013-01-18 06:25:00,
2013-01-18 01:30:00,34.9,19.9,29.53,West,270,5.8,5.8,54,0.00,,,0.00,VWS V14.01,2013-01-18 06:30:00,
2013-01-18 01:35:00,34.9,19.9,29.53,North,0,3.4,3.4,54,0.00,,,0.00,VWS V14.01,2013-01-18 06:35:00,
2013-01-18 01:40:00,34.7,19.8,29.56,NNW,338,3.8,3.8,54,0.00,,,0.00,VWS V14.01,2013-01-18 06:40:00,
2013-01-18 01:45:00,34.7,19.8,29.56,WNW,292,3.8,3.8,54,0.00,,,0.00,VWS V14.01,2013-01-18 06:45:00,
2013-01-18 01:50:00,34.7,19.8,29.56,North,0,3.1,3.1,54,0.00,,,0.00,VWS V14.01,2013-01-18 06:50:00,
2013-01-18 01:55:00,34.5,19.6,29.53,NNW,338,2.5,2.5,54,0.00,,,0.00,VWS V14.01,2013-01-18 06:55:00,
2013-01-18 02:00:00,34.3,19.4,29.53,North,0,4.5,4.5,54,0.00,,,0.00,VWS V14.01,2013-01-18 07:00:00,
2013-01-18 02:05:00,34.3,19.9,29.56,NNW,338,4.3,4.3,55,0.00,,,0.00,VWS V14.01,2013-01-18 07:05:00,
2013-01-18 02:10:00,34.2,19.7,29.56,NNW,338,10.5,10.5,55,0.00,,,0.00,VWS V14.01,2013-01-18 07:10:00,
2013-01-18 02:15:00,33.6,20.0,29.56,North,0,11.0,11.0,57,0.00,,,0.00,VWS V14.01,2013-01-18 07:15:00,
2013-01-18 02:20:00,33.4,19.4,29.56,NNW,338,14.8,14.8,56,0.00,,,0.00,VWS V14.01,2013-01-18 07:20:00,
2013-01-18 02:25:00,33.6,19.2,29.56,NNW,338,8.5,8.5,55,0.00,,,0.00,VWS V14.01,2013-01-18 07:25:00,
2013-01-18 02:30:00,33.6,19.2,29.56,NNW,338,10.5,10.5,55,0.00,,,0.00,VWS V14.01,2013-01-18 07:30:00,
2013-01-18 02:35:00,33.6,19.6,29.59,NW,315,3.1,3.1,56,0.00,,,0.00,VWS V14.01,2013-01-18 07:35:00,
2013-01-18 02:40:00,33.4,19.0,29.59,WNW,292,9.2,9.2,55,0.00,,,0.00,VWS V14.01,2013-01-18 07:40:00,
2013-01-18 02:45:00,33.4,18.6,29.59,NW,315,4.3,4.3,54,0.00,,,0.00,VWS V14.01,2013-01-18 07:45:00,
2013-01-18 02:50:00,33.4,19.0,29.59,WNW,292,5.6,5.6,55,0.00,,,0.00,VWS V14.01,2013-01-18 07:50:00,
2013-01-18 02:56:00,33.3,18.4,29.59,NW,315,6.0,6.0,54,0.00,,,0.00,VWS V14.01,2013-01-18 07:56:00,
2013-01-18 03:01:00,33.3,18.0,29.59,WNW,292,8.1,8.1,53,0.00,,,0.00,VWS V14.01,2013-01-18 08:01:00,
2013-01-18 03:06:00,33.1,16.9,29.62,NNW,338,14.3,14.3,51,0.00,,,0.00,VWS V14.01,2013-01-18 08:06:00,
2013-01-18 03:11:00,33.1,16.9,29.62,North,0,5.8,5.8,51,0.00,,,0.00,VWS V14.01,2013-01-18 08:11:00,
2013-01-18 03:16:00,32.9,15.9,29.62,NNW,338,6.5,6.5,49,0.00,,,0.00,VWS V14.01,2013-01-18 08:16:00,
2013-01-18 03:21:00,32.7,15.7,29.62,NNW,338,6.3,6.3,49,0.00,,,0.00,VWS V14.01,2013-01-18 08:21:00,
2013-01-18 03:26:00,32.7,15.7,29.62,WNW,292,9.8,9.8,49,0.00,,,0.00,VWS V14.01,2013-01-18 08:26:00,
2013-01-18 03:31:00,32.5,15.5,29.62,WNW,292,7.8,7.8,49,0.00,,,0.00,VWS V14.01,2013-01-18 08:31:00,
2013-01-18 03:36:00,32.4,15.4,29.62,NNW,338,7.6,7.6,49,0.00,,,0.00,VWS V14.01,2013-01-18 08:36:00,
2013-01-18 03:41:00,32.4,16.3,29.62,NNE,22,5.6,5.6,51,0.00,,,0.00,VWS V14.01,2013-01-18 08:41:00,
2013-01-18 03:46:00,31.8,16.2,29.62,NNE,22,12.3,12.3,52,0.00,,,0.00,VWS V14.01,2013-01-18 08:46:00,
2013-01-18 03:51:00,31.1,16.0,29.62,NNW,338,13.4,13.4,53,0.00,,,0.00,VWS V14.01,2013-01-18 08:51:00,
2013-01-18 03:56:00,30.6,15.5,29.62,North,0,12.8,12.8,53,0.00,,,0.00,VWS V14.01,2013-01-18 08:56:00,
2013-01-18 04:01:00,30.0,15.4,29.62,NNE,22,15.4,15.4,54,0.00,,,0.00,VWS V14.01,2013-01-18 09:01:00,
2013-01-18 04:06:00,29.7,15.5,29.65,NNE,22,16.1,16.1,55,0.00,,,0.00,VWS V14.01,2013-01-18 09:06:00,
2013-01-18 04:11:00,29.3,15.6,29.65,North,0,11.0,11.0,56,0.00,,,0.00,VWS V14.01,2013-01-18 09:11:00,
2013-01-18 04:16:00,29.1,15.4,29.65,NNE,22,14.1,14.1,56,0.00,,,0.00,VWS V14.01,2013-01-18 09:16:00,
2013-01-18 04:21:00,28.9,15.2,29.68,NNE,22,7.8,7.8,56,0.00,,,0.00,VWS V14.01,2013-01-18 09:21:00,
2013-01-18 04:26:00,28.6,14.9,29.68,North,0,11.0,11.0,56,0.00,,,0.00,VWS V14.01,2013-01-18 09:26:00,
2013-01-18 04:31:00,28.6,14.9,29.68,NNE,22,6.3,6.3,56,0.00,,,0.00,VWS V14.01,2013-01-18 09:31:00,
2013-01-18 04:36:00,28.4,14.7,29.68,North,0,7.4,7.4,56,0.00,,,0.00,VWS V14.01,2013-01-18 09:36:00,
2013-01-18 04:41:00,28.6,14.9,29.68,North,0,6.5,6.5,56,0.00,,,0.00,VWS V14.01,2013-01-18 09:41:00,
2013-01-18 04:46:00,28.6,14.9,29.68,NNE,22,7.6,7.6,56,0.00,,,0.00,VWS V14.01,2013-01-18 09:46:00,
2013-01-18 04:51:00,28.6,14.9,29.68,NNE,22,9.0,9.0,56,0.00,,,0.00,VWS V14.01,2013-01-18 09:51:00,
2013-01-18 04:56:00,28.6,12.3,29.68,NNW,338,8.5,8.5,50,0.00,,,0.00,VWS V14.01,2013-01-18 09:56:00,
2013-01-18 05:02:00,28.6,11.4,29.68,NNW,338,13.0,13.0,48,0.00,,,0.00,VWS V14.01,2013-01-18 10:02:00,
2013-01-18 05:07:00,28.8,12.9,29.68,North,0,10.5,10.5,51,0.00,,,0.00,VWS V14.01,2013-01-18 10:07:00,
2013-01-18 05:12:00,28.6,13.6,29.68,NNW,338,8.5,8.5,53,0.00,,,0.00,VWS V14.01,2013-01-18 10:12:00,
2013-01-18 05:17:00,28.6,13.6,29.68,North,0,11.9,11.9,53,0.00,,,0.00,VWS V14.01,2013-01-18 10:17:00,
2013-01-18 05:22:00,28.4,13.5,29.71,NNW,338,9.8,9.8,53,0.00,,,0.00,VWS V14.01,2013-01-18 10:22:00,
2013-01-18 05:27:00,28.2,12.9,29.71,WNW,292,10.1,10.1,52,0.00,,,0.00,VWS V14.01,2013-01-18 10:27:00,
2013-01-18 05:32:00,28.0,12.3,29.71,NW,315,8.7,8.7,51,0.00,,,0.00,VWS V14.01,2013-01-18 10:32:00,
2013-01-18 05:37:00,27.9,11.2,29.71,NNW,338,5.6,5.6,49,0.00,,,0.00,VWS V14.01,2013-01-18 10:37:00,
2013-01-18 05:42:00,27.7,10.1,29.71,North,0,15.4,15.4,47,0.00,,,0.00,VWS V14.01,2013-01-18 10:42:00,
2013-01-18 05:47:00,27.7,10.6,29.71,WNW,292,7.4,7.4,48,0.00,,,0.00,VWS V14.01,2013-01-18 10:47:00,
2013-01-18 05:52:00,27.5,10.4,29.74,WNW,292,6.0,6.0,48,0.00,,,0.00,VWS V14.01,2013-01-18 10:52:00,
2013-01-18 05:57:00,27.5,10.9,29.74,WNW,292,5.8,5.8,49,0.00,,,0.00,VWS V14.01,2013-01-18 10:57:00,
2013-01-18 06:02:00,27.1,9.6,29.74,NNW,338,8.5,8.5,47,0.00,,,0.00,VWS V14.01,2013-01-18 11:02:00,
2013-01-18 06:07:00,27.3,10.7,29.71,WNW,292,7.8,7.8,49,0.00,,,0.00,VWS V14.01,2013-01-18 11:07:00,
2013-01-18 06:12:00,27.1,11.0,29.71,NNW,338,10.5,10.5,50,0.00,,,0.00,VWS V14.01,2013-01-18 11:12:00,
2013-01-18 06:17:00,26.8,11.5,29.71,North,0,12.3,12.3,52,0.00,,,0.00,VWS V14.01,2013-01-18 11:17:00,
2013-01-18 06:22:00,26.4,12.0,29.74,NNW,338,11.9,11.9,54,0.00,,,0.00,VWS V14.01,2013-01-18 11:22:00,
2013-01-18 06:27:00,26.1,10.4,29.74,NNW,338,13.0,13.0,51,0.00,,,0.00,VWS V14.01,2013-01-18 11:27:00,
2013-01-18 06:32:00,26.1,10.9,29.74,NW,315,8.5,8.5,52,0.00,,,0.00,VWS V14.01,2013-01-18 11:32:00,
2013-01-18 06:37:00,26.1,9.1,29.76,NNW,338,13.6,13.6,48,0.00,,,0.00,VWS V14.01,2013-01-18 11:37:00,
2013-01-18 06:43:00,26.2,9.2,29.76,NNW,338,9.6,9.6,48,0.00,,,0.00,VWS V14.01,2013-01-18 11:43:00,
2013-01-18 06:48:00,26.1,8.6,29.76,North,0,15.2,15.2,47,0.00,,,0.00,VWS V14.01,2013-01-18 11:48:00,
2013-01-18 06:53:00,26.1,8.1,29.79,NNE,22,8.1,8.1,46,0.00,,,0.00,VWS V14.01,2013-01-18 11:53:00,
2013-01-18 06:58:00,26.1,8.1,29.79,NNW,338,5.8,5.8,46,0.00,,,0.00,VWS V14.01,2013-01-18 11:58:00,
2013-01-18 07:03:00,26.1,8.1,29.79,NNE,22,15.4,15.4,46,0.00,,,0.00,VWS V14.01,2013-01-18 12:03:00,
2013-01-18 07:08:00,25.9,8.0,29.79,North,0,12.3,12.3,46,0.00,,,0.00,VWS V14.01,2013-01-18 12:08:00,
2013-01-18 07:13:00,25.7,7.3,29.79,NNW,338,19.5,19.5,45,0.00,,,0.00,VWS V14.01,2013-01-18 12:13:00,
2013-01-18 07:18:00,25.7,7.3,29.79,NNE,22,13.0,13.0,45,0.00,,,0.00,VWS V14.01,2013-01-18 12:18:00,
2013-01-18 07:23:00,25.7,7.8,29.79,NNW,338,10.5,10.5,46,0.00,,,0.00,VWS V14.01,2013-01-18 12:23:00,
2013-01-18 07:28:00,25.3,7.0,29.79,NNW,338,8.5,8.5,45,0.00,,,0.00,VWS V14.01,2013-01-18 12:28:00,
2013-01-18 07:33:00,25.5,7.6,29.79,NNW,338,3.8,3.8,46,0.00,,,0.00,VWS V14.01,2013-01-18 12:33:00,
2013-01-18 07:38:00,25.3,7.0,29.79,NNW,338,7.4,7.4,45,0.00,,,0.00,VWS V14.01,2013-01-18 12:38:00,
2013-01-18 07:43:00,25.2,6.3,29.79,WNW,292,8.7,8.7,44,0.00,,,0.00,VWS V14.01,2013-01-18 12:43:00,
2013-01-18 07:48:00,25.0,6.2,29.79,WNW,292,12.3,12.3,44,0.00,,,0.00,VWS V14.01,2013-01-18 12:48:00,
2013-01-18 07:53:00,24.6,5.8,29.82,NNW,338,7.4,7.4,44,0.00,,,0.00,VWS V14.01,2013-01-18 12:53:00,
2013-01-18 07:58:00,24.4,5.7,29.82,NW,315,19.7,19.7,44,0.00,,,0.00,VWS V14.01,2013-01-18 12:58:00,
2013-01-18 08:03:00,24.4,5.7,29.82,NNW,338,12.8,12.8,44,0.00,,,0.00,VWS V14.01,2013-01-18 13:03:00,
2013-01-18 08:08:00,24.4,5.7,29.82,NW,315,5.4,5.4,44,0.00,,,0.00,VWS V14.01,2013-01-18 13:08:00,
2013-01-18 08:13:00,24.3,5.5,29.82,WNW,292,13.0,13.0,44,0.00,,,0.00,VWS V14.01,2013-01-18 13:13:00,
2013-01-18 08:18:00,24.1,5.3,29.82,North,0,15.2,15.2,44,0.00,,,0.00,VWS V14.01,2013-01-18 13:18:00,
2013-01-18 08:23:00,24.1,5.3,29.85,NNW,338,8.1,8.1,44,0.00,,,0.00,VWS V14.01,2013-01-18 13:23:00,
2013-01-18 08:28:00,23.9,5.2,29.85,NNW,338,12.3,12.3,44,0.00,,,0.00,VWS V14.01,2013-01-18 13:28:00,
2013-01-18 08:33:00,23.9,5.2,29.85,NW,315,14.1,14.1,44,0.00,,,0.00,VWS V14.01,2013-01-18 13:33:00,
2013-01-18 08:38:00,23.9,4.7,29.82,NW,315,8.1,8.1,43,0.00,,,0.00,VWS V14.01,2013-01-18 13:38:00,
2013-01-18 08:43:00,23.9,4.7,29.82,NNW,338,8.7,8.7,43,0.00,,,0.00,VWS V14.01,2013-01-18 13:43:00,
2013-01-18 08:48:00,23.9,5.2,29.82,NNW,338,7.2,7.2,44,0.00,,,0.00,VWS V14.01,2013-01-18 13:48:00,
2013-01-18 08:53:00,24.1,5.3,29.85,NNE,22,8.5,8.5,44,0.00,,,0.00,VWS V14.01,2013-01-18 13:53:00,
2013-01-18 08:58:00,24.1,5.3,29.85,NNW,338,6.0,6.0,44,0.00,,,0.00,VWS V14.01,2013-01-18 13:58:00,
2013-01-18 09:03:00,24.1,4.8,29.85,North,0,10.5,10.5,43,0.00,,,0.00,VWS V14.01,2013-01-18 14:03:00,
2013-01-18 09:08:00,24.1,5.3,29.85,North,0,3.6,3.6,44,0.00,,,0.00,VWS V14.01,2013-01-18 14:08:00,
2013-01-18 09:13:00,24.3,5.0,29.85,NW,315,11.4,11.4,43,0.00,,,0.00,VWS V14.01,2013-01-18 14:13:00,
2013-01-18 09:19:00,24.3,5.0,29.85,NNW,338,5.8,5.8,43,0.00,,,0.00,VWS V14.01,2013-01-18 14:19:00,
2013-01-18 09:24:00,24.4,5.2,29.85,NNE,22,6.0,6.0,43,0.00,,,0.00,VWS V14.01,2013-01-18 14:24:00,
2013-01-18 09:29:00,24.4,5.2,29.85,NW,315,6.0,6.0,43,0.00,,,0.00,VWS V14.01,2013-01-18 14:29:00,
2013-01-18 09:34:00,24.4,5.2,29.85,NNW,338,8.7,8.7,43,0.00,,,0.00,VWS V14.01,2013-01-18 14:34:00,
2013-01-18 09:39:00,24.4,5.2,29.85,North,0,10.5,10.5,43,0.00,,,0.00,VWS V14.01,2013-01-18 14:39:00,
2013-01-18 09:44:00,24.6,5.3,29.85,North,0,7.6,7.6,43,0.00,,,0.00,VWS V14.01,2013-01-18 14:44:00,
2013-01-18 09:49:00,24.4,5.2,29.85,NNE,22,8.1,8.1,43,0.00,,,0.00,VWS V14.01,2013-01-18 14:49:00,
2013-01-18 09:54:00,24.4,5.2,29.88,NNE,22,12.3,12.3,43,0.00,,,0.00,VWS V14.01,2013-01-18 14:54:00,
2013-01-18 09:59:00,24.6,5.3,29.88,NNE,22,12.1,12.1,43,0.00,,,0.00,VWS V14.01,2013-01-18 14:59:00,
2013-01-18 10:04:00,24.4,5.2,29.88,NNE,22,15.9,15.9,43,0.00,,,0.00,VWS V14.01,2013-01-18 15:04:00,
2013-01-18 10:09:00,24.4,5.2,29.88,NNW,338,7.8,7.8,43,0.00,,,0.00,VWS V14.01,2013-01-18 15:09:00,
2013-01-18 10:14:00,24.6,5.3,29.88,NNE,22,8.5,8.5,43,0.00,,,0.00,VWS V14.01,2013-01-18 15:14:00,
2013-01-18 10:19:00,24.6,5.3,29.88,NNE,22,7.8,7.8,43,0.00,,,0.00,VWS V14.01,2013-01-18 15:19:00,
2013-01-18 10:24:00,24.6,5.3,29.91,NNW,338,6.3,6.3,43,0.00,,,0.00,VWS V14.01,2013-01-18 15:24:00,
2013-01-18 10:29:00,24.8,5.5,29.91,North,0,8.1,8.1,43,0.00,,,0.00,VWS V14.01,2013-01-18 15:29:00,
2013-01-18 10:34:00,25.0,5.7,29.91,North,0,10.1,10.1,43,0.00,,,0.00,VWS V14.01,2013-01-18 15:34:00,
2013-01-18 10:39:00,25.2,5.8,29.91,NNE,22,10.3,10.3,43,0.00,,,0.00,VWS V14.01,2013-01-18 15:39:00,
2013-01-18 10:44:00,25.3,6.0,29.91,NNW,338,2.9,2.9,43,0.00,,,0.00,VWS V14.01,2013-01-18 15:44:00,
2013-01-18 10:49:00,25.5,6.2,29.91,North,0,7.8,7.8,43,0.00,,,0.00,VWS V14.01,2013-01-18 15:49:00,
2013-01-18 10:55:00,25.7,6.3,29.91,NNE,22,5.8,5.8,43,0.00,,,0.00,VWS V14.01,2013-01-18 15:55:00,
2013-01-18 11:00:00,25.7,5.8,29.91,NNW,338,5.6,5.6,42,0.00,,,0.00,VWS V14.01,2013-01-18 16:00:00,
2013-01-18 11:05:00,25.9,6.0,29.91,NW,315,4.9,4.9,42,0.00,,,0.00,VWS V14.01,2013-01-18 16:05:00,
2013-01-18 11:10:00,26.1,6.1,29.91,NNW,338,2.9,2.9,42,0.00,,,0.00,VWS V14.01,2013-01-18 16:10:00,
2013-01-18 11:15:00,26.1,6.1,29.91,North,0,9.2,9.2,42,0.00,,,0.00,VWS V14.01,2013-01-18 16:15:00,
2013-01-18 11:20:00,26.1,6.6,29.91,West,270,2.5,2.5,43,0.00,,,0.00,VWS V14.01,2013-01-18 16:20:00,
2013-01-18 11:25:00,26.2,6.3,29.88,NNW,338,2.2,2.2,42,0.00,,,0.00,VWS V14.01,2013-01-18 16:25:00,
2013-01-18 11:30:00,26.4,7.0,29.88,WNW,292,4.0,4.0,43,0.00,,,0.00,VWS V14.01,2013-01-18 16:30:00,
2013-01-18 11:35:00,26.4,6.4,29.88,WNW,292,7.2,7.2,42,0.00,,,0.00,VWS V14.01,2013-01-18 16:35:00,
2013-01-18 11:40:00,26.4,6.4,29.88,NNE,22,4.9,4.9,42,0.00,,,0.00,VWS V14.01,2013-01-18 16:40:00,
2013-01-18 11:45:00,26.6,6.6,29.88,WSW,248,4.0,4.0,42,0.00,,,0.00,VWS V14.01,2013-01-18 16:45:00,
2013-01-18 11:50:00,26.8,6.8,29.85,West,270,4.3,4.3,42,0.00,,,0.00,VWS V14.01,2013-01-18 16:50:00,
2013-01-18 11:55:00,27.0,6.9,29.85,WNW,292,4.0,4.0,42,0.00,,,0.00,VWS V14.01,2013-01-18 16:55:00,
2013-01-18 12:00:00,27.0,6.9,29.85,North,0,4.0,4.0,42,0.00,,,0.00,VWS V14.01,2013-01-18 17:00:00,
2013-01-18 12:05:00,27.0,6.4,29.85,WNW,292,4.3,4.3,41,0.00,,,0.00,VWS V14.01,2013-01-18 17:05:00,
2013-01-18 12:10:00,27.1,6.6,29.85,West,270,4.3,4.3,41,0.00,,,0.00,VWS V14.01,2013-01-18 17:10:00,
2013-01-18 12:15:00,27.3,7.3,29.85,WSW,248,7.4,7.4,42,0.00,,,0.00,VWS V14.01,2013-01-18 17:15:00,
2013-01-18 12:20:00,27.3,7.3,29.85,West,270,5.8,5.8,42,0.00,,,0.00,VWS V14.01,2013-01-18 17:20:00,
2013-01-18 12:25:00,27.3,7.3,29.85,WSW,248,4.7,4.7,42,0.00,,,0.00,VWS V14.01,2013-01-18 17:25:00,
2013-01-18 12:30:00,27.5,7.4,29.85,NW,315,5.6,5.6,42,0.00,,,0.00,VWS V14.01,2013-01-18 17:30:00,
2013-01-18 12:35:00,27.3,6.7,29.85,West,270,8.1,8.1,41,0.00,,,0.00,VWS V14.01,2013-01-18 17:35:00,
2013-01-18 12:40:00,27.3,6.7,29.85,West,270,10.5,10.5,41,0.00,,,0.00,VWS V14.01,2013-01-18 17:40:00,
2013-01-18 12:46:00,27.5,6.9,29.85,West,270,10.3,10.3,41,0.00,,,0.00,VWS V14.01,2013-01-18 17:46:00,
2013-01-18 12:51:00,27.5,6.9,29.85,WSW,248,5.8,5.8,41,0.00,,,0.00,VWS V14.01,2013-01-18 17:51:00,
2013-01-18 12:56:00,27.5,6.9,29.85,WSW,248,8.1,8.1,41,0.00,,,0.00,VWS V14.01,2013-01-18 17:56:00,
2013-01-18 13:01:00,27.3,6.7,29.85,WSW,248,6.5,6.5,41,0.00,,,0.00,VWS V14.01,2013-01-18 18:01:00,
2013-01-18 13:06:00,27.7,7.1,29.82,WNW,292,2.9,2.9,41,0.00,,,0.00,VWS V14.01,2013-01-18 18:06:00,
2013-01-18 13:11:00,27.9,7.2,29.82,WNW,292,5.6,5.6,41,0.00,,,0.00,VWS V14.01,2013-01-18 18:11:00,
2013-01-18 13:16:00,27.9,7.2,29.82,SW,225,1.6,1.6,41,0.00,,,0.00,VWS V14.01,2013-01-18 18:16:00,
2013-01-18 13:21:00,28.0,7.4,29.82,NNW,338,6.0,6.0,41,0.00,,,0.00,VWS V14.01,2013-01-18 18:21:00,
2013-01-18 13:26:00,28.2,7.6,29.82,WSW,248,6.0,6.0,41,0.00,,,0.00,VWS V14.01,2013-01-18 18:26:00,
2013-01-18 13:31:00,28.2,7.6,29.82,WSW,248,3.1,3.1,41,0.00,,,0.00,VWS V14.01,2013-01-18 18:31:00,
2013-01-18 13:36:00,28.4,7.7,29.82,SSW,202,2.0,2.0,41,0.00,,,0.00,VWS V14.01,2013-01-18 18:36:00,
2013-01-18 13:41:00,28.6,7.9,29.82,SSW,202,5.6,5.6,41,0.00,,,0.00,VWS V14.01,2013-01-18 18:41:00,
2013-01-18 13:46:00,28.6,7.9,29.82,WSW,248,3.4,3.4,41,0.00,,,0.00,VWS V14.01,2013-01-18 18:46:00,
2013-01-18 13:51:00,28.6,7.9,29.82,WSW,248,3.6,3.6,41,0.00,,,0.00,VWS V14.01,2013-01-18 18:51:00,
2013-01-18 13:56:00,28.6,7.9,29.82,West,270,4.7,4.7,41,0.00,,,0.00,VWS V14.01,2013-01-18 18:56:00,
2013-01-18 14:01:00,28.6,7.9,29.82,West,270,4.3,4.3,41,0.00,,,0.00,VWS V14.01,2013-01-18 19:01:00,
2013-01-18 14:06:00,28.9,8.2,29.82,West,270,4.3,4.3,41,0.00,,,0.00,VWS V14.01,2013-01-18 19:06:00,
2013-01-18 14:12:00,28.9,8.2,29.82,WSW,248,6.3,6.3,41,0.00,,,0.00,VWS V14.01,2013-01-18 19:12:00,
2013-01-18 14:17:00,28.9,8.2,29.82,WSW,248,4.0,4.0,41,0.00,,,0.00,VWS V14.01,2013-01-18 19:17:00,
2013-01-18 14:22:00,29.3,8.5,29.82,WNW,292,5.4,5.4,41,0.00,,,0.00,VWS V14.01,2013-01-18 19:22:00,
2013-01-18 14:27:00,29.5,8.7,29.82,West,270,6.3,6.3,41,0.00,,,0.00,VWS V14.01,2013-01-18 19:27:00,
2013-01-18 14:32:00,29.5,8.7,29.82,WSW,248,4.9,4.9,41,0.00,,,0.00,VWS V14.01,2013-01-18 19:32:00,
2013-01-18 14:37:00,29.5,8.1,29.82,WSW,248,6.3,6.3,40,0.00,,,0.00,VWS V14.01,2013-01-18 19:37:00,
2013-01-18 14:42:00,29.5,7.6,29.82,West,270,4.3,4.3,39,0.00,,,0.00,VWS V14.01,2013-01-18 19:42:00,
2013-01-18 14:47:00,29.3,7.4,29.82,WSW,248,5.8,5.8,39,0.00,,,0.00,VWS V14.01,2013-01-18 19:47:00,
2013-01-18 14:52:00,29.5,8.1,29.82,WNW,292,8.7,8.7,40,0.00,,,0.00,VWS V14.01,2013-01-18 19:52:00,
2013-01-18 14:57:00,29.5,8.1,29.82,WNW,292,9.8,9.8,40,0.00,,,0.00,VWS V14.01,2013-01-18 19:57:00,
2013-01-18 15:02:00,29.7,8.3,29.82,West,270,10.7,10.7,40,0.00,,,0.00,VWS V14.01,2013-01-18 20:02:00,
2013-01-18 15:07:00,29.5,8.1,29.82,WNW,292,11.0,11.0,40,0.00,,,0.00,VWS V14.01,2013-01-18 20:07:00,
2013-01-18 15:12:00,29.5,8.1,29.82,West,270,8.1,8.1,40,0.00,,,0.00,VWS V14.01,2013-01-18 20:12:00,
2013-01-18 15:17:00,29.7,8.3,29.82,WSW,248,4.3,4.3,40,0.00,,,0.00,VWS V14.01,2013-01-18 20:17:00,
2013-01-18 15:22:00,29.7,7.8,29.82,West,270,6.5,6.5,39,0.00,,,0.00,VWS V14.01,2013-01-18 20:22:00,
2013-01-18 15:27:00,29.5,7.6,29.82,West,270,7.4,7.4,39,0.00,,,0.00,VWS V14.01,2013-01-18 20:27:00,
2013-01-18 15:32:00,29.5,7.6,29.82,West,270,7.6,7.6,39,0.00,,,0.00,VWS V14.01,2013-01-18 20:32:00,
2013-01-18 15:37:00,29.5,7.6,29.82,West,270,7.4,7.4,39,0.00,,,0.00,VWS V14.01,2013-01-18 20:37:00,
2013-01-18 15:42:00,29.7,7.8,29.82,West,270,4.9,4.9,39,0.00,,,0.00,VWS V14.01,2013-01-18 20:42:00,
2013-01-18 15:47:00,29.8,7.9,29.82,West,270,10.5,10.5,39,0.00,,,0.00,VWS V14.01,2013-01-18 20:47:00,
2013-01-18 15:53:00,29.8,7.9,29.82,West,270,7.4,7.4,39,0.00,,,0.00,VWS V14.01,2013-01-18 20:53:00,
2013-01-18 15:57:00,29.7,7.2,29.82,West,270,7.6,7.6,38,0.00,,,0.00,VWS V14.01,2013-01-18 20:57:00,
2013-01-18 16:03:00,29.7,7.2,29.82,West,270,6.5,6.5,38,0.00,,,0.00,VWS V14.01,2013-01-18 21:03:00,
2013-01-18 16:08:00,29.7,7.8,29.82,WSW,248,2.7,2.7,39,0.00,,,0.00,VWS V14.01,2013-01-18 21:08:00,
2013-01-18 16:13:00,29.7,7.8,29.82,WSW,248,4.7,4.7,39,0.00,,,0.00,VWS V14.01,2013-01-18 21:13:00,
2013-01-18 16:18:00,29.7,7.8,29.82,West,270,4.0,4.0,39,0.00,,,0.00,VWS V14.01,2013-01-18 21:18:00,
2013-01-18 16:23:00,29.7,8.3,29.85,WSW,248,3.8,3.8,40,0.00,,,0.00,VWS V14.01,2013-01-18 21:23:00,
2013-01-18 16:28:00,29.5,7.6,29.85,WSW,248,3.4,3.4,39,0.00,,,0.00,VWS V14.01,2013-01-18 21:28:00,
2013-01-18 16:33:00,29.5,7.6,29.85,West,270,4.0,4.0,39,0.00,,,0.00,VWS V14.01,2013-01-18 21:33:00,
2013-01-18 16:38:00,29.5,8.1,29.82,WSW,248,3.4,3.4,40,0.00,,,0.00,VWS V14.01,2013-01-18 21:38:00,
2013-01-18 16:43:00,29.3,8.0,29.82,SSW,202,3.4,3.4,40,0.00,,,0.00,VWS V14.01,2013-01-18 21:43:00,
2013-01-18 16:48:00,29.1,7.8,29.82,SW,225,2.9,2.9,40,0.00,,,0.00,VWS V14.01,2013-01-18 21:48:00,
2013-01-18 16:53:00,29.1,7.8,29.85,SSW,202,3.1,3.1,40,0.00,,,0.00,VWS V14.01,2013-01-18 21:53:00,
2013-01-18 16:58:00,28.9,7.7,29.85,SW,225,2.0,2.0,40,0.00,,,0.00,VWS V14.01,2013-01-18 21:58:00,
2013-01-18 17:03:00,28.9,7.7,29.85,South,180,2.0,2.0,40,0.00,,,0.00,VWS V14.01,2013-01-18 22:03:00,
2013-01-18 17:08:00,28.8,7.5,29.85,SW,225,4.3,4.3,40,0.00,,,0.00,VWS V14.01,2013-01-18 22:08:00,
2013-01-18 17:13:00,28.6,7.3,29.85,SSW,202,3.8,3.8,40,0.00,,,0.00,VWS V14.01,2013-01-18 22:13:00,
2013-01-18 17:19:00,28.6,7.9,29.85,SSE,158,3.1,3.1,41,0.00,,,0.00,VWS V14.01,2013-01-18 22:19:00,
2013-01-18 17:24:00,28.4,7.7,29.85,South,180,2.9,2.9,41,0.00,,,0.00,VWS V14.01,2013-01-18 22:24:00,
2013-01-18 17:29:00,28.0,7.4,29.85,South,180,4.0,4.0,41,0.00,,,0.00,VWS V14.01,2013-01-18 22:29:00,
2013-01-18 17:34:00,28.0,7.4,29.85,SW,225,5.4,5.4,41,0.00,,,0.00,VWS V14.01,2013-01-18 22:34:00,
2013-01-18 17:39:00,27.9,7.2,29.85,SW,225,6.3,6.3,41,0.00,,,0.00,VWS V14.01,2013-01-18 22:39:00,
2013-01-18 17:44:00,27.9,7.2,29.85,SSW,202,3.8,3.8,41,0.00,,,0.00,VWS V14.01,2013-01-18 22:44:00,
2013-01-18 17:49:00,27.7,7.1,29.85,SSW,202,5.6,5.6,41,0.00,,,0.00,VWS V14.01,2013-01-18 22:49:00,
2013-01-18 17:55:00,27.7,7.1,29.88,WSW,248,2.7,2.7,41,0.00,,,0.00,VWS V14.01,2013-01-18 22:55:00,
2013-01-18 18:00:00,27.7,7.1,29.88,SSW,202,4.3,4.3,41,0.00,,,0.00,VWS V14.01,2013-01-18 23:00:00,
2013-01-18 18:05:00,27.7,7.1,29.88,SSW,202,2.7,2.7,41,0.00,,,0.00,VWS V14.01,2013-01-18 23:05:00,
2013-01-18 18:10:00,27.5,6.9,29.85,SSW,202,4.0,4.0,41,0.00,,,0.00,VWS V14.01,2013-01-18 23:10:00,
2013-01-18 18:15:00,27.5,7.4,29.85,SSW,202,3.1,3.1,42,0.00,,,0.00,VWS V14.01,2013-01-18 23:15:00,
2013-01-18 18:20:00,27.3,6.7,29.85,South,180,4.3,4.3,41,0.00,,,0.00,VWS V14.01,2013-01-18 23:20:00,
2013-01-18 18:25:00,27.1,7.1,29.85,SSW,202,4.7,4.7,42,0.00,,,0.00,VWS V14.01,2013-01-18 23:25:00,
2013-01-18 18:30:00,27.1,6.6,29.85,SSW,202,6.7,6.7,41,0.00,,,0.00,VWS V14.01,2013-01-18 23:30:00,
2013-01-18 18:35:00,27.1,6.6,29.85,SSW,202,5.4,5.4,41,0.00,,,0.00,VWS V14.01,2013-01-18 23:35:00,
2013-01-18 18:40:00,27.0,6.9,29.85,SSW,202,3.4,3.4,42,0.00,,,0.00,VWS V14.01,2013-01-18 23:40:00,
2013-01-18 18:45:00,27.0,6.9,29.85,South,180,3.4,3.4,42,0.00,,,0.00,VWS V14.01,2013-01-18 23:45:00,
2013-01-18 18:50:00,27.0,6.9,29.85,SSW,202,2.5,2.5,42,0.00,,,0.00,VWS V14.01,2013-01-18 23:50:00,
2013-01-18 18:55:00,26.8,6.8,29.85,SSE,158,3.1,3.1,42,0.00,,,0.00,VWS V14.01,2013-01-18 23:55:00,
2013-01-18 19:00:00,26.8,6.8,29.85,SSW,202,7.8,7.8,42,0.00,,,0.00,VWS V14.01,2013-01-19 00:00:00,
2013-01-18 19:05:00,26.8,6.8,29.82,South,180,6.5,6.5,42,0.00,,,0.00,VWS V14.01,2013-01-19 00:05:00,
2013-01-18 19:10:00,26.6,6.6,29.82,SSW,202,4.0,4.0,42,0.00,,,0.00,VWS V14.01,2013-01-19 00:10:00,
2013-01-18 19:15:00,26.6,6.6,29.82,WSW,248,6.5,6.5,42,0.00,,,0.00,VWS V14.01,2013-01-19 00:15:00,
2013-01-18 19:21:00,26.6,6.6,29.85,South,180,5.8,5.8,42,0.00,,,0.00,VWS V14.01,2013-01-19 00:21:00,
2013-01-18 19:26:00,26.6,6.6,29.85,SSE,158,6.0,6.0,42,0.00,,,0.00,VWS V14.01,2013-01-19 00:26:00,
2013-01-18 19:31:00,26.6,6.6,29.85,SSW,202,2.9,2.9,42,0.00,,,0.00,VWS V14.01,2013-01-19 00:31:00,
2013-01-18 19:36:00,26.6,6.6,29.82,SSW,202,2.7,2.7,42,0.00,,,0.00,VWS V14.01,2013-01-19 00:36:00,
2013-01-18 19:41:00,26.6,6.6,29.82,SSW,202,3.6,3.6,42,0.00,,,0.00,VWS V14.01,2013-01-19 00:41:00,
2013-01-18 19:46:00,26.6,6.6,29.82,South,180,5.6,5.6,42,0.00,,,0.00,VWS V14.01,2013-01-19 00:46:00,
2013-01-18 19:51:00,26.6,6.6,29.82,South,180,6.0,6.0,42,0.00,,,0.00,VWS V14.01,2013-01-19 00:51:00,
2013-01-18 19:56:00,26.4,6.4,29.82,SSW,202,5.4,5.4,42,0.00,,,0.00,VWS V14.01,2013-01-19 00:56:00,
2013-01-18 20:01:00,26.2,6.3,29.82,SSW,202,3.6,3.6,42,0.00,,,0.00,VWS V14.01,2013-01-19 01:01:00,
2013-01-18 20:06:00,26.2,6.3,29.82,SSW,202,4.3,4.3,42,0.00,,,0.00,VWS V14.01,2013-01-19 01:06:00,
2013-01-18 20:11:00,26.2,6.3,29.82,South,180,2.0,2.0,42,0.00,,,0.00,VWS V14.01,2013-01-19 01:11:00,
2013-01-18 20:16:00,26.2,6.8,29.82,SSW,202,5.6,5.6,43,0.00,,,0.00,VWS V14.01,2013-01-19 01:16:00,
2013-01-18 20:21:00,26.2,6.3,29.82,SSW,202,4.9,4.9,42,0.00,,,0.00,VWS V14.01,2013-01-19 01:21:00,
2013-01-18 20:26:00,26.2,6.8,29.82,South,180,6.0,6.0,43,0.00,,,0.00,VWS V14.01,2013-01-19 01:26:00,
2013-01-18 20:32:00,26.2,6.8,29.82,SSW,202,4.9,4.9,43,0.00,,,0.00,VWS V14.01,2013-01-19 01:32:00,
2013-01-18 20:37:00,26.2,6.8,29.82,South,180,5.4,5.4,43,0.00,,,0.00,VWS V14.01,2013-01-19 01:37:00,
2013-01-18 20:42:00,26.2,6.8,29.82,South,180,3.8,3.8,43,0.00,,,0.00,VWS V14.01,2013-01-19 01:42:00,
2013-01-18 20:47:00,26.2,6.8,29.82,South,180,8.5,8.5,43,0.00,,,0.00,VWS V14.01,2013-01-19 01:47:00,
2013-01-18 20:52:00,26.2,6.8,29.82,South,180,5.6,5.6,43,0.00,,,0.00,VWS V14.01,2013-01-19 01:52:00,
2013-01-18 20:57:00,26.4,7.0,29.82,SSW,202,5.6,5.6,43,0.00,,,0.00,VWS V14.01,2013-01-19 01:57:00,
2013-01-18 21:02:00,26.4,7.0,29.82,South,180,7.8,7.8,43,0.00,,,0.00,VWS V14.01,2013-01-19 02:02:00,
2013-01-18 21:07:00,26.4,7.0,29.82,SSW,202,5.6,5.6,43,0.00,,,0.00,VWS V14.01,2013-01-19 02:07:00,
2013-01-18 21:12:00,26.4,7.0,29.82,SW,225,3.6,3.6,43,0.00,,,0.00,VWS V14.01,2013-01-19 02:12:00,
2013-01-18 21:17:00,26.4,7.0,29.82,SSW,202,3.6,3.6,43,0.00,,,0.00,VWS V14.01,2013-01-19 02:17:00,
2013-01-18 21:22:00,26.4,7.0,29.82,SSW,202,5.4,5.4,43,0.00,,,0.00,VWS V14.01,2013-01-19 02:22:00,
2013-01-18 21:27:00,26.4,7.0,29.82,SSW,202,3.8,3.8,43,0.00,,,0.00,VWS V14.01,2013-01-19 02:27:00,
2013-01-18 21:32:00,26.4,7.0,29.82,SSW,202,5.6,5.6,43,0.00,,,0.00,VWS V14.01,2013-01-19 02:32:00,
2013-01-18 21:37:00,26.4,7.0,29.79,SSW,202,4.0,4.0,43,0.00,,,0.00,VWS V14.01,2013-01-19 02:37:00,
2013-01-18 21:42:00,26.4,7.0,29.79,South,180,6.3,6.3,43,0.00,,,0.00,VWS V14.01,2013-01-19 02:42:00,
2013-01-18 21:47:00,26.6,7.1,29.79,SSW,202,7.4,7.4,43,0.00,,,0.00,VWS V14.01,2013-01-19 02:47:00,
2013-01-18 21:52:00,26.8,7.3,29.79,South,180,7.8,7.8,43,0.00,,,0.00,VWS V14.01,2013-01-19 02:52:00,
2013-01-18 21:57:00,26.8,7.3,29.79,South,180,12.1,12.1,43,0.00,,,0.00,VWS V14.01,2013-01-19 02:57:00,
2013-01-18 22:02:00,27.0,7.5,29.79,SSW,202,2.9,2.9,43,0.00,,,0.00,VWS V14.01,2013-01-19 03:02:00,
2013-01-18 22:08:00,26.8,7.3,29.76,SSW,202,6.5,6.5,43,0.00,,,0.00,VWS V14.01,2013-01-19 03:08:00,
2013-01-18 22:13:00,26.8,7.3,29.76,SSW,202,8.1,8.1,43,0.00,,,0.00,VWS V14.01,2013-01-19 03:13:00,
2013-01-18 22:18:00,27.0,7.5,29.76,South,180,5.4,5.4,43,0.00,,,0.00,VWS V14.01,2013-01-19 03:18:00,
2013-01-18 22:23:00,26.8,7.3,29.76,South,180,4.0,4.0,43,0.00,,,0.00,VWS V14.01,2013-01-19 03:23:00,
2013-01-18 22:28:00,26.8,7.3,29.76,SSW,202,4.0,4.0,43,0.00,,,0.00,VWS V14.01,2013-01-19 03:28:00,
2013-01-18 22:33:00,26.8,7.3,29.76,SSW,202,8.1,8.1,43,0.00,,,0.00,VWS V14.01,2013-01-19 03:33:00,
2013-01-18 22:38:00,26.8,7.3,29.79,South,180,6.0,6.0,43,0.00,,,0.00,VWS V14.01,2013-01-19 03:38:00,
2013-01-18 22:43:00,26.8,7.3,29.79,South,180,4.0,4.0,43,0.00,,,0.00,VWS V14.01,2013-01-19 03:43:00,
2013-01-18 22:48:00,26.8,7.3,29.79,South,180,4.0,4.0,43,0.00,,,0.00,VWS V14.01,2013-01-19 03:48:00,
2013-01-18 22:53:00,26.6,7.6,29.79,South,180,6.3,6.3,44,0.00,,,0.00,VWS V14.01,2013-01-19 03:53:00,
2013-01-18 22:59:00,26.6,7.6,29.79,South,180,5.4,5.4,44,0.00,,,0.00,VWS V14.01,2013-01-19 03:59:00,
2013-01-18 23:04:00,26.6,7.6,29.79,South,180,10.5,10.5,44,0.00,,,0.00,VWS V14.01,2013-01-19 04:04:00,
2013-01-18 23:09:00,26.6,7.6,29.79,SSW,202,5.6,5.6,44,0.00,,,0.00,VWS V14.01,2013-01-19 04:09:00,
2013-01-18 23:14:00,26.6,7.6,29.79,South,180,5.8,5.8,44,0.00,,,0.00,VWS V14.01,2013-01-19 04:14:00,
2013-01-18 23:19:00,26.6,7.6,29.79,SSE,158,3.4,3.4,44,0.00,,,0.00,VWS V14.01,2013-01-19 04:19:00,
2013-01-18 23:24:00,26.8,7.8,29.79,South,180,6.5,6.5,44,0.00,,,0.00,VWS V14.01,2013-01-19 04:24:00,
2013-01-18 23:29:00,26.6,7.6,29.79,SSW,202,7.4,7.4,44,0.00,,,0.00,VWS V14.01,2013-01-19 04:29:00,
2013-01-18 23:34:00,26.8,7.8,29.79,SSW,202,3.6,3.6,44,0.00,,,0.00,VWS V14.01,2013-01-19 04:34:00,
2013-01-18 23:39:00,26.8,7.8,29.76,SSW,202,3.6,3.6,44,0.00,,,0.00,VWS V14.01,2013-01-19 04:39:00,
2013-01-18 23:44:00,26.8,7.8,29.76,SSW,202,3.6,3.6,44,0.00,,,0.00,VWS V14.01,2013-01-19 04:44:00,
2013-01-18 23:49:00,26.8,7.8,29.76,SSW,202,3.4,3.4,44,0.00,,,0.00,VWS V14.01,2013-01-19 04:49:00,
2013-01-18 23:54:00,26.8,7.8,29.76,SSW,202,9.6,9.6,44,0.00,,,0.00,VWS V14.01,2013-01-19 04:54:00,
2013-01-18 23:59:00,27.0,8.5,29.76,SSW,202,6.5,6.5,45,0.00,,,0.00,VWS V14.01,2013-01-19 04:59:00,